sensor_id;sensor_type;location;lat;lon;timestamp;pressure;altitude;pressure_sealevel;temperature;humidity
41947;BME280;27638;42.184;24.848;2023-04-21T00:00:45;99392.72;;;13.70;93.59
41947;BME280;27638;42.184;24.848;2023-04-21T00:03:11;99390.69;;;13.72;93.28
41947;BME280;27638;42.184;24.848;2023-04-21T00:05:37;99389.44;;;13.68;93.31
41947;BME280;27638;42.184;24.848;2023-04-21T00:08:07;99388.88;;;13.73;94.04
41947;BME280;27638;42.184;24.848;2023-04-21T00:10:32;99383.41;;;13.81;93.53
41947;BME280;27638;42.184;24.848;2023-04-21T00:12:58;99383.66;;;13.86;92.76
41947;BME280;27638;42.184;24.848;2023-04-21T00:15:24;99380.16;;;13.86;92.45
41947;BME280;27638;42.184;24.848;2023-04-21T00:17:49;99375.41;;;13.81;92.50
41947;BME280;27638;42.184;24.848;2023-04-21T00:20:15;99374.84;;;13.86;92.22
41947;BME280;27638;42.184;24.848;2023-04-21T00:22:40;99381.56;;;13.82;92.62
41947;BME280;27638;42.184;24.848;2023-04-21T00:25:06;99376.09;;;13.90;92.59
41947;BME280;27638;42.184;24.848;2023-04-21T00:27:32;99379.69;;;14.03;89.89
41947;BME280;27638;42.184;24.848;2023-04-21T00:29:57;99375.00;;;14.05;89.20
41947;BME280;27638;42.184;24.848;2023-04-21T00:32:23;99375.63;;;14.07;89.76
41947;BME280;27638;42.184;24.848;2023-04-21T00:34:48;99370.31;;;14.07;90.53
41947;BME280;27638;42.184;24.848;2023-04-21T00:37:14;99371.75;;;14.10;91.29
41947;BME280;27638;42.184;24.848;2023-04-21T00:39:39;99374.47;;;14.17;90.40
41947;BME280;27638;42.184;24.848;2023-04-21T00:42:05;99372.19;;;14.14;89.57
41947;BME280;27638;42.184;24.848;2023-04-21T00:44:30;99357.34;;;13.98;89.01
41947;BME280;27638;42.184;24.848;2023-04-21T00:46:56;99373.44;;;14.18;88.54
41947;BME280;27638;42.184;24.848;2023-04-21T00:49:23;99374.47;;;14.17;85.70
41947;BME280;27638;42.184;24.848;2023-04-21T00:51:50;99362.13;;;14.09;86.20
41947;BME280;27638;42.184;24.848;2023-04-21T00:54:16;99367.84;;;14.06;86.48
41947;BME280;27638;42.184;24.848;2023-04-21T00:56:42;99362.72;;;14.04;86.18
41947;BME280;27638;42.184;24.848;2023-04-21T00:59:08;99360.78;;;13.92;86.68
41947;BME280;27638;42.184;24.848;2023-04-21T01:01:34;99366.81;;;13.79;87.98
41947;BME280;27638;42.184;24.848;2023-04-21T01:04:02;99371.25;;;13.72;89.37
41947;BME280;27638;42.184;24.848;2023-04-21T01:06:29;99363.69;;;13.33;91.03
41947;BME280;27638;42.184;24.848;2023-04-21T01:08:56;99363.53;;;13.56;90.62
41947;BME280;27638;42.184;24.848;2023-04-21T01:11:22;99353.59;;;13.64;89.35
41947;BME280;27638;42.184;24.848;2023-04-21T01:13:51;99352.69;;;13.57;89.92
41947;BME280;27638;42.184;24.848;2023-04-21T01:16:17;99356.78;;;13.38;90.51
41947;BME280;27638;42.184;24.848;2023-04-21T01:18:44;99356.34;;;13.35;90.72
41947;BME280;27638;42.184;24.848;2023-04-21T01:21:10;99356.16;;;13.36;91.14
41947;BME280;27638;42.184;24.848;2023-04-21T01:23:36;99360.88;;;13.56;89.84
41947;BME280;27638;42.184;24.848;2023-04-21T01:26:01;99356.91;;;13.52;89.76
41947;BME280;27638;42.184;24.848;2023-04-21T01:28:27;99351.31;;;13.61;88.72
41947;BME280;27638;42.184;24.848;2023-04-21T01:30:52;99357.19;;;13.57;88.01
41947;BME280;27638;42.184;24.848;2023-04-21T01:33:19;99350.13;;;13.49;88.50
41947;BME280;27638;42.184;24.848;2023-04-21T01:35:45;99350.31;;;13.48;88.29
41947;BME280;27638;42.184;24.848;2023-04-21T01:38:11;99344.28;;;13.54;88.12
41947;BME280;27638;42.184;24.848;2023-04-21T01:40:37;99343.81;;;13.50;87.63
41947;BME280;27638;42.184;24.848;2023-04-21T01:43:03;99344.94;;;13.41;87.79
41947;BME280;27638;42.184;24.848;2023-04-21T01:45:30;99347.47;;;13.28;88.18
41947;BME280;27638;42.184;24.848;2023-04-21T01:47:55;99343.50;;;13.38;87.94
41947;BME280;27638;42.184;24.848;2023-04-21T01:50:21;99351.72;;;13.07;88.22
41947;BME280;27638;42.184;24.848;2023-04-21T01:52:47;99357.16;;;12.99;89.94
41947;BME280;27638;42.184;24.848;2023-04-21T01:55:12;99354.78;;;12.90;89.50
41947;BME280;27638;42.184;24.848;2023-04-21T01:57:39;99355.53;;;12.84;90.24
41947;BME280;27638;42.184;24.848;2023-04-21T02:00:05;99357.81;;;12.87;90.66
41947;BME280;27638;42.184;24.848;2023-04-21T02:02:31;99363.78;;;12.89;90.54
41947;BME280;27638;42.184;24.848;2023-04-21T02:04:56;99370.84;;;12.82;90.88
41947;BME280;27638;42.184;24.848;2023-04-21T02:07:22;99367.81;;;12.85;90.17
41947;BME280;27638;42.184;24.848;2023-04-21T02:09:48;99371.03;;;12.65;90.42
41947;BME280;27638;42.184;24.848;2023-04-21T02:12:13;99365.72;;;12.51;90.89
41947;BME280;27638;42.184;24.848;2023-04-21T02:14:39;99369.84;;;12.68;90.97
41947;BME280;27638;42.184;24.848;2023-04-21T02:17:04;99364.25;;;12.77;89.01
41947;BME280;27638;42.184;24.848;2023-04-21T02:19:30;99358.94;;;12.77;88.24
41947;BME280;27638;42.184;24.848;2023-04-21T02:21:55;99367.66;;;12.71;88.08
41947;BME280;27638;42.184;24.848;2023-04-21T02:24:21;99359.69;;;12.71;88.89
41947;BME280;27638;42.184;24.848;2023-04-21T02:26:47;99353.44;;;12.79;88.14
41947;BME280;27638;42.184;24.848;2023-04-21T02:29:12;99340.91;;;12.58;88.34
41947;BME280;27638;42.184;24.848;2023-04-21T02:31:38;99352.00;;;12.62;88.22
41947;BME280;27638;42.184;24.848;2023-04-21T02:34:04;99348.66;;;12.45;89.14
41947;BME280;27638;42.184;24.848;2023-04-21T02:36:29;99352.16;;;12.45;89.18
41947;BME280;27638;42.184;24.848;2023-04-21T02:38:56;99352.47;;;12.51;88.47
41947;BME280;27638;42.184;24.848;2023-04-21T02:41:21;99343.00;;;12.63;88.21
41947;BME280;27638;42.184;24.848;2023-04-21T02:43:47;99353.53;;;12.71;87.18
41947;BME280;27638;42.184;24.848;2023-04-21T02:46:13;99338.44;;;12.71;87.59
41947;BME280;27638;42.184;24.848;2023-04-21T02:48:39;99346.84;;;12.75;87.23
41947;BME280;27638;42.184;24.848;2023-04-21T02:51:04;99347.78;;;12.67;87.34
41947;BME280;27638;42.184;24.848;2023-04-21T02:53:35;99349.34;;;12.62;87.63
41947;BME280;27638;42.184;24.848;2023-04-21T02:56:01;99349.59;;;12.67;87.32
41947;BME280;27638;42.184;24.848;2023-04-21T02:58:29;99340.91;;;12.58;87.25
41947;BME280;27638;42.184;24.848;2023-04-21T03:00:55;99353.63;;;12.63;87.44
41947;BME280;27638;42.184;24.848;2023-04-21T03:03:21;99353.72;;;12.69;86.70
41947;BME280;27638;42.184;24.848;2023-04-21T03:05:47;99367.47;;;12.73;85.90
41947;BME280;27638;42.184;24.848;2023-04-21T03:08:12;99359.47;;;12.14;88.39
41947;BME280;27638;42.184;24.848;2023-04-21T03:10:38;99361.38;;;12.20;89.79
41947;BME280;27638;42.184;24.848;2023-04-21T03:13:04;99360.84;;;12.25;89.42
41947;BME280;27638;42.184;24.848;2023-04-21T03:15:29;99370.16;;;12.06;88.92
41947;BME280;27638;42.184;24.848;2023-04-21T03:17:55;99367.34;;;12.22;87.90
41947;BME280;27638;42.184;24.848;2023-04-21T03:20:20;99374.31;;;12.38;86.76
41947;BME280;27638;42.184;24.848;2023-04-21T03:22:46;99370.41;;;12.49;85.88
41947;BME280;27638;42.184;24.848;2023-04-21T03:25:11;99378.84;;;12.52;85.38
41947;BME280;27638;42.184;24.848;2023-04-21T03:27:37;99371.97;;;12.58;83.78
41947;BME280;27638;42.184;24.848;2023-04-21T03:30:03;99368.94;;;12.61;83.17
41947;BME280;27638;42.184;24.848;2023-04-21T03:32:29;99378.00;;;12.66;82.86
41947;BME280;27638;42.184;24.848;2023-04-21T03:34:55;99376.16;;;12.67;82.15
41947;BME280;27638;42.184;24.848;2023-04-21T03:37:20;99384.13;;;12.67;81.86
41947;BME280;27638;42.184;24.848;2023-04-21T03:39:46;99383.13;;;12.68;80.71
41947;BME280;27638;42.184;24.848;2023-04-21T03:42:11;99373.59;;;12.59;81.82
41947;BME280;27638;42.184;24.848;2023-04-21T03:44:37;99373.78;;;12.57;82.10
41947;BME280;27638;42.184;24.848;2023-04-21T03:47:03;99382.00;;;12.47;82.32
41947;BME280;27638;42.184;24.848;2023-04-21T03:49:28;99382.09;;;12.39;83.14
41947;BME280;27638;42.184;24.848;2023-04-21T03:51:54;99377.97;;;12.37;83.85
41947;BME280;27638;42.184;24.848;2023-04-21T03:54:19;99384.19;;;12.44;83.77
41947;BME280;27638;42.184;24.848;2023-04-21T03:56:45;99390.09;;;12.54;83.24
41947;BME280;27638;42.184;24.848;2023-04-21T03:59:10;99390.38;;;12.59;80.83
41947;BME280;27638;42.184;24.848;2023-04-21T04:01:36;99382.50;;;12.66;80.98
41947;BME280;27638;42.184;24.848;2023-04-21T04:04:02;99374.53;;;12.66;80.30
41947;BME280;27638;42.184;24.848;2023-04-21T04:06:27;99385.69;;;12.61;81.25
41947;BME280;27638;42.184;24.848;2023-04-21T04:08:53;99383.03;;;12.61;82.39
41947;BME280;27638;42.184;24.848;2023-04-21T04:11:18;99384.78;;;12.69;82.18
41947;BME280;27638;42.184;24.848;2023-04-21T04:13:44;99395.13;;;12.78;81.32
41947;BME280;27638;42.184;24.848;2023-04-21T04:16:10;99387.88;;;12.87;80.86
41947;BME280;27638;42.184;24.848;2023-04-21T04:18:35;99387.88;;;12.87;80.51
41947;BME280;27638;42.184;24.848;2023-04-21T04:21:05;99391.16;;;12.89;80.44
41947;BME280;27638;42.184;24.848;2023-04-21T04:23:32;99397.56;;;12.95;80.64
41947;BME280;27638;42.184;24.848;2023-04-21T04:25:57;99404.81;;;13.01;80.96
41947;BME280;27638;42.184;24.848;2023-04-21T04:28:23;99393.44;;;12.92;81.31
41947;BME280;27638;42.184;24.848;2023-04-21T04:30:49;99398.88;;;12.84;82.39
41947;BME280;27638;42.184;24.848;2023-04-21T04:33:14;99408.84;;;12.97;82.26
41947;BME280;27638;42.184;24.848;2023-04-21T04:35:40;99407.94;;;12.90;83.55
41947;BME280;27638;42.184;24.848;2023-04-21T04:38:05;99421.97;;;12.84;84.35
41947;BME280;27638;42.184;24.848;2023-04-21T04:40:32;99419.66;;;12.51;85.71
41947;BME280;27638;42.184;24.848;2023-04-21T04:42:58;99420.09;;;12.40;86.55
41947;BME280;27638;42.184;24.848;2023-04-21T04:45:25;99420.91;;;12.40;87.60
41947;BME280;27638;42.184;24.848;2023-04-21T04:47:52;99413.72;;;12.49;87.82
41947;BME280;27638;42.184;24.848;2023-04-21T04:50:18;99421.75;;;12.41;88.80
41947;BME280;27638;42.184;24.848;2023-04-21T04:52:43;99411.72;;;12.66;87.23
41947;BME280;27638;42.184;24.848;2023-04-21T04:55:11;99419.84;;;12.79;85.53
41947;BME280;27638;42.184;24.848;2023-04-21T04:57:37;99414.88;;;13.05;84.75
41947;BME280;27638;42.184;24.848;2023-04-21T05:00:04;99422.00;;;13.34;84.29
41947;BME280;27638;42.184;24.848;2023-04-21T05:02:31;99423.69;;;13.57;82.75
41947;BME280;27638;42.184;24.848;2023-04-21T05:04:56;99423.06;;;13.76;81.72
41947;BME280;27638;42.184;24.848;2023-04-21T05:07:22;99409.75;;;13.97;82.86
41947;BME280;27638;42.184;24.848;2023-04-21T05:09:47;99413.00;;;14.21;81.06
41947;BME280;27638;42.184;24.848;2023-04-21T05:12:13;99420.41;;;14.47;79.13
41947;BME280;27638;42.184;24.848;2023-04-21T05:14:38;99415.63;;;14.63;78.94
41947;BME280;27638;42.184;24.848;2023-04-21T05:17:04;99423.94;;;14.54;79.25
41947;BME280;27638;42.184;24.848;2023-04-21T05:19:29;99420.78;;;14.72;77.86
41947;BME280;27638;42.184;24.848;2023-04-21T05:21:58;99419.53;;;14.67;78.34
41947;BME280;27638;42.184;24.848;2023-04-21T05:24:26;99408.56;;;14.90;78.78
41947;BME280;27638;42.184;24.848;2023-04-21T05:26:52;99407.22;;;15.08;78.36
41947;BME280;27638;42.184;24.848;2023-04-21T05:29:18;99407.72;;;15.38;78.00
41947;BME280;27638;42.184;24.848;2023-04-21T05:31:45;99414.44;;;15.75;76.06
41947;BME280;27638;42.184;24.848;2023-04-21T05:34:10;99405.00;;;16.05;74.25
41947;BME280;27638;42.184;24.848;2023-04-21T05:36:36;99409.50;;;16.31;71.35
41947;BME280;27638;42.184;24.848;2023-04-21T05:39:01;99403.75;;;16.41;70.95
41947;BME280;27638;42.184;24.848;2023-04-21T05:41:26;99406.63;;;16.46;70.73
41947;BME280;27638;42.184;24.848;2023-04-21T05:43:52;99399.59;;;16.58;71.05
41947;BME280;27638;42.184;24.848;2023-04-21T05:46:17;99395.09;;;16.78;69.57
41947;BME280;27638;42.184;24.848;2023-04-21T05:48:43;99396.03;;;17.04;70.05
41947;BME280;27638;42.184;24.848;2023-04-21T05:51:09;99397.59;;;17.18;70.66
41947;BME280;27638;42.184;24.848;2023-04-21T05:53:36;99392.34;;;17.36;69.08
41947;BME280;27638;42.184;24.848;2023-04-21T05:56:02;99392.72;;;17.46;65.94
41947;BME280;27638;42.184;24.848;2023-04-21T05:58:27;99388.78;;;17.49;64.60
41947;BME280;27638;42.184;24.848;2023-04-21T06:00:53;99388.75;;;17.55;62.70
41947;BME280;27638;42.184;24.848;2023-04-21T06:03:18;99385.81;;;17.64;62.63
41947;BME280;27638;42.184;24.848;2023-04-21T06:05:43;99386.88;;;17.56;60.12
41947;BME280;27638;42.184;24.848;2023-04-21T06:08:09;99389.13;;;17.59;59.97
41947;BME280;27638;42.184;24.848;2023-04-21T06:10:34;99387.25;;;17.73;59.68
41947;BME280;27638;42.184;24.848;2023-04-21T06:13:00;99387.25;;;17.73;59.29
41947;BME280;27638;42.184;24.848;2023-04-21T06:15:25;99381.56;;;17.88;59.68
41947;BME280;27638;42.184;24.848;2023-04-21T06:17:54;99376.31;;;17.99;58.24
41947;BME280;27638;42.184;24.848;2023-04-21T06:20:19;99373.31;;;17.89;56.14
41947;BME280;27638;42.184;24.848;2023-04-21T06:22:45;99375.94;;;17.96;56.30
41947;BME280;27638;42.184;24.848;2023-04-21T06:25:10;99369.72;;;18.02;55.63
41947;BME280;27638;42.184;24.848;2023-04-21T06:27:36;99380.91;;;18.17;55.64
41947;BME280;27638;42.184;24.848;2023-04-21T06:30:01;99369.69;;;18.27;54.89
41947;BME280;27638;42.184;24.848;2023-04-21T06:32:27;99370.72;;;18.26;54.64
41947;BME280;27638;42.184;24.848;2023-04-21T06:34:52;99374.09;;;18.39;53.60
41947;BME280;27638;42.184;24.848;2023-04-21T06:37:17;99360.41;;;18.47;55.07
41947;BME280;27638;42.184;24.848;2023-04-21T06:39:43;99370.69;;;18.50;54.18
41947;BME280;27638;42.184;24.848;2023-04-21T06:42:08;99365.81;;;18.66;54.11
41947;BME280;27638;42.184;24.848;2023-04-21T06:44:34;99372.59;;;18.68;53.56
41947;BME280;27638;42.184;24.848;2023-04-21T06:46:59;99374.47;;;19.04;54.20
41947;BME280;27638;42.184;24.848;2023-04-21T06:49:25;99376.19;;;19.29;52.58
41947;BME280;27638;42.184;24.848;2023-04-21T06:51:50;99372.34;;;19.25;50.55
41947;BME280;27638;42.184;24.848;2023-04-21T06:54:15;99370.16;;;19.33;52.43
41947;BME280;27638;42.184;24.848;2023-04-21T06:56:41;99370.38;;;19.32;50.77
41947;BME280;27638;42.184;24.848;2023-04-21T06:59:07;99377.84;;;19.30;50.50
41947;BME280;27638;42.184;24.848;2023-04-21T07:01:34;99375.34;;;19.17;51.74
41947;BME280;27638;42.184;24.848;2023-04-21T07:03:59;99372.06;;;19.14;50.74
41947;BME280;27638;42.184;24.848;2023-04-21T07:06:25;99378.06;;;19.28;50.49
41947;BME280;27638;42.184;24.848;2023-04-21T07:08:51;99377.44;;;19.44;50.33
41947;BME280;27638;42.184;24.848;2023-04-21T07:11:16;99362.81;;;19.40;49.91
41947;BME280;27638;42.184;24.848;2023-04-21T07:13:41;99360.19;;;19.52;50.65
41947;BME280;27638;42.184;24.848;2023-04-21T07:16:07;99366.19;;;19.66;49.07
41947;BME280;27638;42.184;24.848;2023-04-21T07:18:32;99368.41;;;19.69;50.29
41947;BME280;27638;42.184;24.848;2023-04-21T07:20:59;99365.47;;;20.00;51.85
41947;BME280;27638;42.184;24.848;2023-04-21T07:23:25;99368.97;;;20.24;50.68
41947;BME280;27638;42.184;24.848;2023-04-21T07:25:50;99364.53;;;20.30;48.42
41947;BME280;27638;42.184;24.848;2023-04-21T07:28:15;99369.91;;;20.30;47.94
41947;BME280;27638;42.184;24.848;2023-04-21T07:30:41;99366.28;;;20.24;48.50
41947;BME280;27638;42.184;24.848;2023-04-21T07:33:06;99359.53;;;20.45;49.71
41947;BME280;27638;42.184;24.848;2023-04-21T07:35:33;99358.13;;;20.54;47.01
41947;BME280;27638;42.184;24.848;2023-04-21T07:37:58;99351.56;;;20.50;47.90
41947;BME280;27638;42.184;24.848;2023-04-21T07:40:24;99350.50;;;20.63;49.41
41947;BME280;27638;42.184;24.848;2023-04-21T07:42:49;99349.56;;;20.69;46.83
41947;BME280;27638;42.184;24.848;2023-04-21T07:45:15;99360.53;;;20.79;47.38
41947;BME280;27638;42.184;24.848;2023-04-21T07:47:40;99349.19;;;20.77;47.84
41947;BME280;27638;42.184;24.848;2023-04-21T07:50:06;99357.22;;;21.00;46.62
41947;BME280;27638;42.184;24.848;2023-04-21T07:52:32;99359.31;;;20.98;44.67
41947;BME280;27638;42.184;24.848;2023-04-21T07:54:57;99363.19;;;21.02;43.60
41947;BME280;27638;42.184;24.848;2023-04-21T07:57:22;99357.47;;;20.99;43.56
41947;BME280;27638;42.184;24.848;2023-04-21T07:59:48;99357.59;;;20.92;42.50
41947;BME280;27638;42.184;24.848;2023-04-21T08:02:14;99351.59;;;21.02;42.42
41947;BME280;27638;42.184;24.848;2023-04-21T08:04:40;99355.63;;;21.16;42.88
41947;BME280;27638;42.184;24.848;2023-04-21T08:07:05;99348.59;;;21.27;41.77
41947;BME280;27638;42.184;24.848;2023-04-21T08:09:31;99350.66;;;21.37;42.44
41947;BME280;27638;42.184;24.848;2023-04-21T08:11:56;99358.63;;;21.60;41.19
41947;BME280;27638;42.184;24.848;2023-04-21T08:14:22;99348.16;;;21.63;42.21
41947;BME280;27638;42.184;24.848;2023-04-21T08:16:47;99347.13;;;21.81;42.31
41947;BME280;27638;42.184;24.848;2023-04-21T08:19:13;99346.63;;;21.84;40.10
41947;BME280;27638;42.184;24.848;2023-04-21T08:21:38;99347.94;;;21.82;40.50
41947;BME280;27638;42.184;24.848;2023-04-21T08:24:04;99340.41;;;21.84;41.71
41947;BME280;27638;42.184;24.848;2023-04-21T08:26:30;99348.28;;;22.02;41.51
41947;BME280;27638;42.184;24.848;2023-04-21T08:28:58;99343.69;;;21.69;41.01
41947;BME280;27638;42.184;24.848;2023-04-21T08:31:24;99352.44;;;21.76;40.60
41947;BME280;27638;42.184;24.848;2023-04-21T08:33:49;99344.28;;;21.88;42.39
41947;BME280;27638;42.184;24.848;2023-04-21T08:36:15;99346.91;;;21.99;41.54
41947;BME280;27638;42.184;24.848;2023-04-21T08:38:43;99337.88;;;22.06;40.43
41947;BME280;27638;42.184;24.848;2023-04-21T08:41:09;99338.84;;;22.16;41.35
41947;BME280;27638;42.184;24.848;2023-04-21T08:43:35;99339.22;;;22.25;41.70
41947;BME280;27638;42.184;24.848;2023-04-21T08:46:11;99341.44;;;22.28;40.84
41947;BME280;27638;42.184;24.848;2023-04-21T08:48:37;99339.22;;;22.25;40.29
41947;BME280;27638;42.184;24.848;2023-04-21T08:51:05;99332.94;;;22.19;39.90
41947;BME280;27638;42.184;24.848;2023-04-21T08:53:31;99335.31;;;22.16;39.06
41947;BME280;27638;42.184;24.848;2023-04-21T08:55:56;99338.75;;;22.11;39.68
41947;BME280;27638;42.184;24.848;2023-04-21T08:58:22;99335.06;;;22.17;40.25
41947;BME280;27638;42.184;24.848;2023-04-21T09:00:48;99327.88;;;22.23;41.75
41947;BME280;27638;42.184;24.848;2023-04-21T09:03:20;99328.75;;;22.28;40.35
41947;BME280;27638;42.184;24.848;2023-04-21T09:05:59;99330.72;;;22.33;39.03
41947;BME280;27638;42.184;24.848;2023-04-21T09:08:25;99323.84;;;22.25;38.04
41947;BME280;27638;42.184;24.848;2023-04-21T09:10:52;99308.84;;;22.13;39.35
41947;BME280;27638;42.184;24.848;2023-04-21T09:13:18;99318.72;;;22.24;39.27
41947;BME280;27638;42.184;24.848;2023-04-21T09:15:46;99316.66;;;22.31;38.81
41947;BME280;27638;42.184;24.848;2023-04-21T09:18:14;99315.72;;;22.42;39.89
41947;BME280;27638;42.184;24.848;2023-04-21T09:20:41;99312.78;;;22.44;39.39
41947;BME280;27638;42.184;24.848;2023-04-21T09:23:08;99307.00;;;22.35;39.76
41947;BME280;27638;42.184;24.848;2023-04-21T09:25:37;99300.75;;;22.13;38.75
41947;BME280;27638;42.184;24.848;2023-04-21T09:28:06;99300.00;;;22.01;36.54
41947;BME280;27638;42.184;24.848;2023-04-21T09:30:37;99295.78;;;21.88;36.82
41947;BME280;27638;42.184;24.848;2023-04-21T09:33:03;99300.69;;;21.91;39.83
41947;BME280;27638;42.184;24.848;2023-04-21T09:35:31;99294.72;;;22.06;39.35
41947;BME280;27638;42.184;24.848;2023-04-21T09:37:59;99287.03;;;22.14;41.49
41947;BME280;27638;42.184;24.848;2023-04-21T09:40:25;99295.56;;;22.28;38.97
41947;BME280;27638;42.184;24.848;2023-04-21T09:42:52;99296.06;;;22.25;36.82
41947;BME280;27638;42.184;24.848;2023-04-21T09:45:18;99285.06;;;22.10;39.03
41947;BME280;27638;42.184;24.848;2023-04-21T09:47:48;99260.63;;;21.99;38.78
41947;BME280;27638;42.184;24.848;2023-04-21T09:50:15;99281.94;;;22.18;39.17
41947;BME280;27638;42.184;24.848;2023-04-21T09:52:42;99287.97;;;22.25;38.56
41947;BME280;27638;42.184;24.848;2023-04-21T09:55:12;99288.31;;;22.28;39.23
41947;BME280;27638;42.184;24.848;2023-04-21T09:57:39;99275.75;;;22.17;37.00
41947;BME280;27638;42.184;24.848;2023-04-21T10:00:07;99281.78;;;22.24;37.45
41947;BME280;27638;42.184;24.848;2023-04-21T10:02:34;99270.84;;;22.14;38.02
41947;BME280;27638;42.184;24.848;2023-04-21T10:05:03;99268.53;;;22.23;37.59
41947;BME280;27638;42.184;24.848;2023-04-21T10:07:29;99269.16;;;22.30;36.83
41947;BME280;27638;42.184;24.848;2023-04-21T10:09:55;99261.66;;;22.32;37.24
41947;BME280;27638;42.184;24.848;2023-04-21T10:12:22;99263.84;;;22.35;37.60
41947;BME280;27638;42.184;24.848;2023-04-21T10:14:51;99261.78;;;22.42;38.41
41947;BME280;27638;42.184;24.848;2023-04-21T10:17:24;99262.91;;;22.46;37.63
41947;BME280;27638;42.184;24.848;2023-04-21T10:19:52;99255.81;;;22.40;36.07
41947;BME280;27638;42.184;24.848;2023-04-21T10:22:33;99255.06;;;22.45;37.53
41947;BME280;27638;42.184;24.848;2023-04-21T10:25:00;99250.53;;;22.50;35.82
41947;BME280;27638;42.184;24.848;2023-04-21T10:27:33;99251.88;;;22.48;36.59
41947;BME280;27638;42.184;24.848;2023-04-21T10:29:59;99245.72;;;22.52;37.97
41947;BME280;27638;42.184;24.848;2023-04-21T10:32:40;99250.03;;;22.53;36.00
41947;BME280;27638;42.184;24.848;2023-04-21T10:35:10;99239.94;;;22.44;36.25
41947;BME280;27638;42.184;24.848;2023-04-21T10:37:36;99244.97;;;22.57;37.53
41947;BME280;27638;42.184;24.848;2023-04-21T10:40:01;99235.47;;;22.54;36.63
41947;BME280;27638;42.184;24.848;2023-04-21T10:42:33;99246.38;;;22.65;38.18
41947;BME280;27638;42.184;24.848;2023-04-21T10:45:00;99242.06;;;22.63;36.16
41947;BME280;27638;42.184;24.848;2023-04-21T10:47:38;99250.28;;;22.74;38.35
41947;BME280;27638;42.184;24.848;2023-04-21T10:53:11;99238.81;;;22.01;37.94
41947;BME280;27638;42.184;24.848;2023-04-21T10:55:37;99246.38;;;21.49;36.91
41947;BME280;27638;42.184;24.848;2023-04-21T10:58:07;99252.97;;;21.24;37.01
41947;BME280;27638;42.184;24.848;2023-04-21T11:00:35;99253.88;;;21.01;38.84
41947;BME280;27638;42.184;24.848;2023-04-21T11:03:05;99258.50;;;20.89;38.17
41947;BME280;27638;42.184;24.848;2023-04-21T11:05:37;99258.41;;;20.72;41.96
41947;BME280;27638;42.184;24.848;2023-04-21T11:08:10;99260.66;;;20.64;53.06
41947;BME280;27638;42.184;24.848;2023-04-21T11:10:47;99255.38;;;20.69;58.52
41947;BME280;27638;42.184;24.848;2023-04-21T11:13:13;99255.06;;;20.65;49.38
41947;BME280;27638;42.184;24.848;2023-04-21T11:15:39;99247.34;;;20.57;50.91
41947;BME280;27638;42.184;24.848;2023-04-21T11:18:05;99247.06;;;20.70;42.43
41947;BME280;27638;42.184;24.848;2023-04-21T11:20:33;99247.56;;;20.67;45.89
41947;BME280;27638;42.184;24.848;2023-04-21T11:22:58;99242.13;;;20.79;45.47
41947;BME280;27638;42.184;24.848;2023-04-21T11:25:23;99245.75;;;20.85;44.70
41947;BME280;27638;42.184;24.848;2023-04-21T11:27:56;99249.22;;;20.97;41.18
41947;BME280;27638;42.184;24.848;2023-04-21T11:30:33;99247.03;;;21.11;42.70
41947;BME280;27638;42.184;24.848;2023-04-21T11:32:59;99238.69;;;21.24;42.17
41947;BME280;27638;42.184;24.848;2023-04-21T11:35:24;99237.38;;;21.43;45.07
41947;BME280;27638;42.184;24.848;2023-04-21T11:37:50;99236.72;;;21.53;42.17
41947;BME280;27638;42.184;24.848;2023-04-21T11:40:18;99242.03;;;21.48;43.07
41947;BME280;27638;42.184;24.848;2023-04-21T11:42:43;99235.44;;;21.39;41.36
41947;BME280;27638;42.184;24.848;2023-04-21T11:45:16;99236.91;;;21.46;38.56
41947;BME280;27638;42.184;24.848;2023-04-21T11:47:42;99229.88;;;21.45;41.22
41947;BME280;27638;42.184;24.848;2023-04-21T11:50:08;99237.53;;;21.53;42.60
41947;BME280;27638;42.184;24.848;2023-04-21T11:52:35;99240.06;;;21.43;41.15
41947;BME280;27638;42.184;24.848;2023-04-21T11:55:13;99230.53;;;21.52;39.75
41947;BME280;27638;42.184;24.848;2023-04-21T11:57:44;99227.50;;;21.49;38.34
41947;BME280;27638;42.184;24.848;2023-04-21T12:00:11;99237.53;;;21.53;39.48
41947;BME280;27638;42.184;24.848;2023-04-21T12:02:38;99233.78;;;21.54;38.94
41947;BME280;27638;42.184;24.848;2023-04-21T12:05:05;99236.31;;;21.44;40.22
41947;BME280;27638;42.184;24.848;2023-04-21T12:07:32;99229.78;;;21.40;39.40
41947;BME280;27638;42.184;24.848;2023-04-21T12:09:59;99232.66;;;21.50;40.27
41947;BME280;27638;42.184;24.848;2023-04-21T12:12:25;99226.13;;;21.46;37.85
41947;BME280;27638;42.184;24.848;2023-04-21T12:14:51;99235.66;;;21.54;39.63
41947;BME280;27638;42.184;24.848;2023-04-21T12:17:17;99220.41;;;21.59;38.69
41947;BME280;27638;42.184;24.848;2023-04-21T12:19:43;99230.44;;;21.64;38.84
41947;BME280;27638;42.184;24.848;2023-04-21T12:22:10;99222.69;;;21.67;40.44
41947;BME280;27638;42.184;24.848;2023-04-21T12:24:36;99216.56;;;21.55;39.03
41947;BME280;27638;42.184;24.848;2023-04-21T12:27:02;99218.09;;;21.68;39.95
41947;BME280;27638;42.184;24.848;2023-04-21T12:29:28;99214.50;;;21.79;40.64
41947;BME280;27638;42.184;24.848;2023-04-21T12:31:54;99211.09;;;21.67;39.05
41947;BME280;27638;42.184;24.848;2023-04-21T12:34:19;99213.59;;;21.74;38.76
41947;BME280;27638;42.184;24.848;2023-04-21T12:36:44;99214.25;;;21.81;39.86
41947;BME280;27638;42.184;24.848;2023-04-21T12:39:10;99212.28;;;21.76;37.93
41947;BME280;27638;42.184;24.848;2023-04-21T12:41:35;99215.00;;;21.76;39.32
41947;BME280;27638;42.184;24.848;2023-04-21T12:44:01;99207.47;;;21.78;39.63
41947;BME280;27638;42.184;24.848;2023-04-21T12:46:27;99211.09;;;21.50;38.92
41947;BME280;27638;42.184;24.848;2023-04-21T12:48:52;99213.72;;;21.45;37.97